CheckWX is a tool to help pilots better visualize weather data.  It is not intended as a substitute for an official pre-flight weather briefing.

21:34:53 UTC

EHRD TAF
Rotterdam Airport
Rotterdam, The Netherlands
TAF COR EHRD 201710Z 2018/2124 24011KT 9999 BKN009 BECMG 2018/2021 21006KT BKN016 BECMG 2021/2024 6000 BKN012 BECMG 2101/2104 4500 BR BKN006 PROB30 2104/2109 2500 BKN004 BECMG 2109/2112 25010KT 9999 NSW BKN021 BECMG 2117/2120 20005KT BECMG 2120/2123 6000

Mar-20@
18:00 UTC

Mar-20 @ 18:00 UTC

Mar-22@
00:00 UTC

Mar-22 @ 00:00 UTC

TAF COR EHRD 201710Z 2018/2124 24011KT 9999 BKN009
Wind
  • 240° at 11 KTS
Cloud Levels
  • Broken at 900' AGL

Mar-20@
18:00 UTC

Mar-20 @ 18:00 UTC

Mar-20@
21:00 UTC

Mar-20 @ 21:00 UTC

BECMG 2018/2021 21006KT BKN016

Expired

Wind
  • 210° at 6 KTS
Cloud Levels
  • Broken at 1,600' AGL

Mar-20@
21:00 UTC

Mar-20 @ 21:00 UTC

Mar-21@
01:00 UTC

Mar-21 @ 01:00 UTC

BECMG 2021/2024 6000 BKN012

Becoming

Becoming Conditions expected by Thu, Mar 21, 2019 @ 00:00 UTC

Wind
  • 210° at 6 KTS
Cloud Levels
  • Broken at 1,200' AGL

Mar-21@
01:00 UTC

Mar-21 @ 01:00 UTC

Mar-21@
09:00 UTC

Mar-21 @ 09:00 UTC

BECMG 2101/2104 4500 BR BKN006

Becoming

Becoming Conditions expected by Thu, Mar 21, 2019 @ 04:00 UTC

Wind
  • 210° at 6 KTS
Conditions
Mist
Cloud Levels
  • Broken at 600' AGL

Mar-21@
04:00 UTC

Mar-21 @ 04:00 UTC

Mar-21@
09:00 UTC

Mar-21 @ 09:00 UTC

PROB30 2104/2109 2500 BKN004

Probable - 30% Likelihood

Probable - 30% Likelihood during this time.

Cloud Levels
  • Broken at 400' AGL

Mar-21@
09:00 UTC

Mar-21 @ 09:00 UTC

Mar-21@
17:00 UTC

Mar-21 @ 17:00 UTC

BECMG 2109/2112 25010KT 9999 NSW BKN021

Becoming

Becoming Conditions expected by Thu, Mar 21, 2019 @ 12:00 UTC

Wind
  • 250° at 10 KTS
Conditions
No significant weather
Cloud Levels
  • Broken at 2,100' AGL

Mar-21@
17:00 UTC

Mar-21 @ 17:00 UTC

Mar-21@
20:00 UTC

Mar-21 @ 20:00 UTC

BECMG 2117/2120 20005KT

Becoming

Becoming Conditions expected by Thu, Mar 21, 2019 @ 20:00 UTC

Wind
  • 200° at 5 KTS
Conditions
No significant weather
Cloud Levels
  • Broken at 2,100' AGL

Mar-21@
20:00 UTC

Mar-21 @ 20:00 UTC

Mar-22@
00:00 UTC

Mar-22 @ 00:00 UTC

BECMG 2120/2123 6000

Becoming

Becoming Conditions expected by Thu, Mar 21, 2019 @ 23:00 UTC

Wind
  • 200° at 5 KTS
Conditions
No significant weather
Cloud Levels
  • Broken at 2,100' AGL